Time;durP1;ratioP1;P1;durP2;ratioP2;P2;SDS_P1;SDS_P2;PMS_P1;PMS_P2;Temp;Humidity;BMP_temperature;BMP_pressure;BME280_temperature;BME280_humidity;BME280_pressure;Samples;Min_cycle;Max_cycle;Signal;HPM_P1;HPM_P2
2021/08/27 00:01:16;;;;;;;3.88;2.67;;;;;;;;;;6241795;28;20461;-74
2021/08/27 00:04:19;;;;;;;3.13;2.83;;;;;;;;;;6253216;28;20187;-74
2021/08/27 00:07:21;;;;;;;3.15;2.35;;;;;;;;;;6248877;28;20635;-74
2021/08/27 00:10:22;;;;;;;5.88;3.13;;;;;;;;;;6244870;28;20168;-74
2021/08/27 00:13:24;;;;;;;3.92;2.67;;;;;;;;;;6249061;28;20131;-74
2021/08/27 00:16:25;;;;;;;2.97;2.65;;;;;;;;;;6244578;28;20681;-74
2021/08/27 00:19:28;;;;;;;3.63;2.58;;;;;;;;;;6246679;28;20160;-75
2021/08/27 00:22:30;;;;;;;4.95;3.03;;;;;;;;;;6244731;28;20259;-74
2021/08/27 00:25:32;;;;;;;6.80;2.50;;;;;;;;;;6248734;28;20098;-74
2021/08/27 00:28:33;;;;;;;3.95;2.92;;;;;;;;;;6253038;28;20050;-74
2021/08/27 00:31:35;;;;;;;3.80;2.95;;;;;;;;;;6235004;28;20041;-74
2021/08/27 00:34:38;;;;;;;5.13;2.83;;;;;;;;;;6251219;28;20393;-74
2021/08/27 00:37:40;;;;;;;4.05;2.75;;;;;;;;;;6240034;28;20106;-74
2021/08/27 00:40:42;;;;;;;3.83;3.30;;;;;;;;;;6244285;28;20499;-74
2021/08/27 00:43:43;;;;;;;4.22;3.05;;;;;;;;;;6254186;28;20045;-74
2021/08/27 00:46:45;;;;;;;3.70;2.60;;;;;;;;;;6242336;28;21289;-74
2021/08/27 00:49:48;;;;;;;5.20;2.85;;;;;;;;;;6248384;28;20086;-74
2021/08/27 00:52:49;;;;;;;3.95;2.95;;;;;;;;;;6241476;28;20049;-74
2021/08/27 00:55:51;;;;;;;4.20;2.78;;;;;;;;;;6241791;28;20178;-74
2021/08/27 00:58:53;;;;;;;6.30;3.53;;;;;;;;;;6254372;28;20049;-74
2021/08/27 01:01:54;;;;;;;5.25;2.97;;;;;;;;;;6236675;28;20489;-74
2021/08/27 01:04:57;;;;;;;3.85;2.85;;;;;;;;;;6252654;28;20095;-73
2021/08/27 01:08:04;;;;;;;5.70;3.10;;;;;;;;;;6244666;28;20055;-74
2021/08/27 01:11:09;;;;;;;6.13;2.90;;;;;;;;;;6247975;28;20057;-74
2021/08/27 01:14:16;;;;;;;4.82;3.15;;;;;;;;;;6251470;28;20148;-74
2021/08/27 01:17:21;;;;;;;5.13;2.90;;;;;;;;;;6236163;28;20072;-74
2021/08/27 01:20:53;;;;;;;4.80;2.90;;;;;;;;;;6243621;28;20110;-74
2021/08/27 01:23:56;;;;;;;5.53;3.20;;;;;;;;;;6254561;28;20041;-74
2021/08/27 01:27:03;;;;;;;4.40;3.38;;;;;;;;;;6252927;28;20574;-74
2021/08/27 01:30:09;;;;;;;4.53;2.83;;;;;;;;;;6260085;28;20124;-74
2021/08/27 01:33:13;;;;;;;3.47;2.90;;;;;;;;;;6245642;28;20114;-75
2021/08/27 01:36:17;;;;;;;4.40;3.28;;;;;;;;;;6238852;28;20057;-74
2021/08/27 01:39:19;;;;;;;3.10;2.70;;;;;;;;;;6251487;28;20087;-74
2021/08/27 01:42:24;;;;;;;4.70;3.78;;;;;;;;;;6241040;28;20456;-74
2021/08/27 01:45:26;;;;;;;5.90;2.92;;;;;;;;;;6243350;28;20049;-74
2021/08/27 01:48:31;;;;;;;3.28;2.90;;;;;;;;;;6246183;28;20045;-74
2021/08/27 01:51:35;;;;;;;5.22;3.10;;;;;;;;;;6240633;28;20052;-74
2021/08/27 01:54:38;;;;;;;5.20;3.20;;;;;;;;;;6255679;28;20049;-74
2021/08/27 01:57:40;;;;;;;4.27;3.10;;;;;;;;;;6244964;28;20552;-74
2021/08/27 02:00:42;;;;;;;5.30;3.15;;;;;;;;;;6239731;28;20451;-74
2021/08/27 02:03:45;;;;;;;4.80;3.30;;;;;;;;;;6244316;28;20140;-74
2021/08/27 02:06:48;;;;;;;6.80;3.33;;;;;;;;;;6244438;28;20045;-74
2021/08/27 02:09:52;;;;;;;3.95;2.65;;;;;;;;;;6252038;28;20079;-74
2021/08/27 02:12:53;;;;;;;9.48;3.17;;;;;;;;;;6246425;28;20544;-74
2021/08/27 02:15:56;;;;;;;4.55;3.50;;;;;;;;;;6245521;28;20497;-74
2021/08/27 02:18:57;;;;;;;4.95;3.67;;;;;;;;;;6248812;28;20075;-74
2021/08/27 02:22:02;;;;;;;4.57;3.00;;;;;;;;;;6240535;28;20132;-74
2021/08/27 02:25:05;;;;;;;4.68;3.30;;;;;;;;;;6251174;28;20053;-74
2021/08/27 02:28:07;;;;;;;6.75;3.45;;;;;;;;;;6234687;28;20110;-74
2021/08/27 02:31:09;;;;;;;4.78;3.25;;;;;;;;;;6249967;28;20052;-74
2021/08/27 02:34:11;;;;;;;5.78;3.03;;;;;;;;;;6247387;28;20041;-74
2021/08/27 02:37:17;;;;;;;4.90;3.38;;;;;;;;;;6241294;28;20123;-75
2021/08/27 02:40:18;;;;;;;8.43;3.40;;;;;;;;;;6246000;28;20045;-73
2021/08/27 02:43:20;;;;;;;6.07;3.50;;;;;;;;;;6247876;28;20139;-74
2021/08/27 02:46:21;;;;;;;4.45;3.35;;;;;;;;;;6243363;28;20041;-74
2021/08/27 02:49:23;;;;;;;7.35;4.05;;;;;;;;;;6246429;28;20045;-74
2021/08/27 02:52:31;;;;;;;4.53;3.60;;;;;;;;;;6240365;28;20041;-74
2021/08/27 02:55:36;;;;;;;5.30;3.20;;;;;;;;;;6243407;28;20045;-74
2021/08/27 02:58:38;;;;;;;5.55;4.15;;;;;;;;;;6252418;28;20129;-74
2021/08/27 03:01:49;;;;;;;5.78;3.33;;;;;;;;;;6239552;28;20042;-74
2021/08/27 03:04:56;;;;;;;7.97;3.95;;;;;;;;;;6248241;28;20046;-74
2021/08/27 03:08:01;;;;;;;7.95;4.43;;;;;;;;;;6247914;28;20045;-74
2021/08/27 03:11:07;;;;;;;5.53;4.15;;;;;;;;;;6244549;28;20098;-74
2021/08/27 03:14:12;;;;;;;5.85;4.90;;;;;;;;;;6249659;28;20049;-74
2021/08/27 03:17:16;;;;;;;4.88;3.85;;;;;;;;;;6238340;28;20124;-75
2021/08/27 03:20:21;;;;;;;5.43;4.20;;;;;;;;;;6246373;28;20052;-74
2021/08/27 03:23:25;;;;;;;7.07;4.60;;;;;;;;;;6252884;28;20053;-74
2021/08/27 03:26:30;;;;;;;6.35;5.30;;;;;;;;;;6240118;28;20519;-74
2021/08/27 03:29:37;;;;;;;9.23;5.60;;;;;;;;;;6252432;28;20179;-74
2021/08/27 03:32:39;;;;;;;7.30;5.95;;;;;;;;;;6236163;28;20084;-74
2021/08/27 03:35:40;;;;;;;7.47;6.68;;;;;;;;;;6240792;28;20060;-74
2021/08/27 03:38:44;;;;;;;7.63;6.25;;;;;;;;;;6249427;28;20052;-74
2021/08/27 03:41:46;;;;;;;9.60;6.60;;;;;;;;;;6246326;28;20183;-74
2021/08/27 03:44:48;;;;;;;8.48;7.18;;;;;;;;;;6251552;28;20589;-74
2021/08/27 03:47:51;;;;;;;8.38;6.32;;;;;;;;;;6234713;28;20075;-74
2021/08/27 03:50:54;;;;;;;8.30;6.63;;;;;;;;;;6243934;28;20248;-74
2021/08/27 03:53:57;;;;;;;9.60;6.65;;;;;;;;;;6254005;28;20493;-74
2021/08/27 03:57:02;;;;;;;9.02;6.05;;;;;;;;;;6246959;28;20151;-74
2021/08/27 04:00:05;;;;;;;10.02;7.82;;;;;;;;;;6263779;28;20177;-74
2021/08/27 04:03:07;;;;;;;13.90;8.10;;;;;;;;;;6242326;28;20509;-74
2021/08/27 04:06:10;;;;;;;13.57;9.30;;;;;;;;;;6247865;28;20128;-74
2021/08/27 04:09:13;;;;;;;11.77;9.57;;;;;;;;;;6247941;28;20088;-75
2021/08/27 04:12:14;;;;;;;10.98;9.63;;;;;;;;;;6251659;28;20048;-74
2021/08/27 04:15:17;;;;;;;11.73;9.77;;;;;;;;;;6258694;28;20097;-74
2021/08/27 04:18:19;;;;;;;12.40;10.57;;;;;;;;;;6248871;28;20064;-74
2021/08/27 04:21:20;;;;;;;13.30;10.13;;;;;;;;;;6248370;28;20107;-74
2021/08/27 04:24:25;;;;;;;13.55;10.63;;;;;;;;;;6260236;28;20053;-74
2021/08/27 04:27:26;;;;;;;17.42;12.00;;;;;;;;;;6253164;28;20057;-74
2021/08/27 04:30:28;;;;;;;17.20;12.20;;;;;;;;;;6251451;28;20133;-74
2021/08/27 04:33:30;;;;;;;16.17;12.10;;;;;;;;;;6254680;28;20458;-74
2021/08/27 04:36:31;;;;;;;14.77;11.30;;;;;;;;;;6253330;28;20805;-74
2021/08/27 04:39:34;;;;;;;13.95;11.23;;;;;;;;;;6263596;28;20771;-74
2021/08/27 04:42:36;;;;;;;15.15;11.48;;;;;;;;;;6243940;28;20207;-74
2021/08/27 04:45:38;;;;;;;14.32;11.75;;;;;;;;;;6241871;28;20439;-74
2021/08/27 04:48:39;;;;;;;16.38;11.70;;;;;;;;;;6244779;28;20552;-75
2021/08/27 04:51:41;;;;;;;14.85;12.25;;;;;;;;;;6245338;28;20045;-76
2021/08/27 04:54:44;;;;;;;19.52;11.75;;;;;;;;;;6258702;28;20160;-76
2021/08/27 04:57:45;;;;;;;12.88;11.10;;;;;;;;;;6248900;28;20592;-75
2021/08/27 05:00:47;;;;;;;13.70;10.85;;;;;;;;;;6243433;28;20052;-75
2021/08/27 05:03:48;;;;;;;13.27;10.50;;;;;;;;;;6249434;28;20091;-74
2021/08/27 05:06:50;;;;;;;11.98;9.90;;;;;;;;;;6242244;28;20061;-75
2021/08/27 05:09:53;;;;;;;14.57;8.57;;;;;;;;;;6250634;28;20136;-74
2021/08/27 05:12:54;;;;;;;11.80;8.57;;;;;;;;;;6242395;28;20130;-72
2021/08/27 05:15:56;;;;;;;9.90;8.38;;;;;;;;;;6238537;28;20057;-72
2021/08/27 05:18:57;;;;;;;13.07;7.65;;;;;;;;;;6250646;28;20623;-72
2021/08/27 05:21:59;;;;;;;9.20;7.60;;;;;;;;;;6249528;28;20098;-72
2021/08/27 05:25:02;;;;;;;9.20;7.15;;;;;;;;;;6263989;28;20500;-70
2021/08/27 05:28:04;;;;;;;8.75;6.40;;;;;;;;;;6245043;28;20140;-70
2021/08/27 05:31:05;;;;;;;12.25;7.18;;;;;;;;;;6250870;28;20051;-73
2021/08/27 05:34:07;;;;;;;14.32;6.80;;;;;;;;;;6253499;28;20203;-72
2021/08/27 05:37:09;;;;;;;8.55;6.82;;;;;;;;;;6244554;28;20096;-72
2021/08/27 05:40:13;;;;;;;8.60;6.05;;;;;;;;;;6251799;28;20061;-72
2021/08/27 05:43:14;;;;;;;;;;;;;;;;;;6247265;28;20049;-73
2021/08/27 05:46:16;;;;;;;7.55;6.13;;;;;;;;;;6241412;28;19933;-73
2021/08/27 05:49:17;;;;;;;6.45;5.68;;;;;;;;;;6249443;28;20142;-74
2021/08/27 05:52:19;;;;;;;6.07;5.05;;;;;;;;;;6243845;28;20053;-73
2021/08/27 05:55:22;;;;;;;7.72;5.05;;;;;;;;;;6246912;28;20549;-74
2021/08/27 05:58:24;;;;;;;6.57;5.28;;;;;;;;;;6250943;28;20558;-73
2021/08/27 06:01:25;;;;;;;5.68;4.60;;;;;;;;;;6245091;28;20087;-73
2021/08/27 06:04:27;;;;;;;8.20;5.43;;;;;;;;;;6255597;28;20442;-73
2021/08/27 06:07:28;;;;;;;7.22;5.18;;;;;;;;;;6241123;28;20098;-73
2021/08/27 06:10:31;;;;;;;8.75;5.50;;;;;;;;;;6238781;28;20046;-73
2021/08/27 06:13:33;;;;;;;11.53;5.23;;;;;;;;;;6249296;28;20071;-73
2021/08/27 06:16:35;;;;;;;10.15;5.32;;;;;;;;;;6235048;28;20573;-73
2021/08/27 06:19:37;;;;;;;9.13;4.47;;;;;;;;;;6249147;28;20520;-68
2021/08/27 06:22:38;;;;;;;9.48;4.85;;;;;;;;;;6240643;28;20124;-69
2021/08/27 06:25:41;;;;;;;9.00;4.82;;;;;;;;;;6245610;28;20102;-70
2021/08/27 06:28:43;;;;;;;11.07;4.75;;;;;;;;;;6251028;28;20072;-70
2021/08/27 06:31:47;;;;;;;8.07;4.07;;;;;;;;;;6232945;28;20053;-69
2021/08/27 06:34:48;;;;;;;11.40;4.40;;;;;;;;;;6245836;28;20045;-69
2021/08/27 06:41:11;;;;;;;9.57;4.65;;;;;;;;;;6239646;28;20045;-69
2021/08/27 06:44:12;;;;;;;9.25;4.38;;;;;;;;;;6249153;28;20127;-69
2021/08/27 06:47:14;;;;;;;9.50;4.32;;;;;;;;;;6230658;28;20041;-69
2021/08/27 06:50:15;;;;;;;294.55;21.23;;;;;;;;;;6243498;28;20041;-71
2021/08/27 06:53:17;;;;;;;37.47;5.38;;;;;;;;;;6246580;28;20057;-72
2021/08/27 06:56:21;;;;;;;10.45;3.40;;;;;;;;;;6240301;28;20053;-71
2021/08/27 06:59:22;;;;;;;7.95;3.97;;;;;;;;;;6247280;28;20182;-70
2021/08/27 07:02:24;;;;;;;6.00;3.95;;;;;;;;;;6236204;28;20050;-68
2021/08/27 07:05:25;;;;;;;7.00;3.78;;;;;;;;;;6240124;28;20141;-68
2021/08/27 07:08:27;;;;;;;9.80;3.63;;;;;;;;;;6246727;28;20065;-68
2021/08/27 07:11:30;;;;;;;10.00;3.42;;;;;;;;;;6242328;28;20063;-73
2021/08/27 07:14:31;;;;;;;12.63;3.83;;;;;;;;;;6248095;28;20396;-73
2021/08/27 07:17:33;;;;;;;6.53;3.30;;;;;;;;;;6235736;28;20251;-71
2021/08/27 07:20:35;;;;;;;9.95;3.45;;;;;;;;;;6238271;28;20761;-70
2021/08/27 07:23:36;;;;;;;8.90;3.50;;;;;;;;;;6246159;28;20050;-70
2021/08/27 07:26:39;;;;;;;5.55;3.00;;;;;;;;;;6242296;28;20052;-70
2021/08/27 07:29:41;;;;;;;6.40;3.23;;;;;;;;;;6248066;28;20519;-70
2021/08/27 07:32:43;;;;;;;9.30;3.22;;;;;;;;;;6235960;28;20471;-70
2021/08/27 07:35:45;;;;;;;8.35;3.20;;;;;;;;;;6236660;28;20542;-70
2021/08/27 07:38:46;;;;;;;7.82;3.67;;;;;;;;;;6249625;28;20045;-70
2021/08/27 07:41:49;;;;;;;11.50;3.13;;;;;;;;;;6240067;28;20079;-70
2021/08/27 07:44:51;;;;;;;10.83;3.00;;;;;;;;;;6253191;28;20094;-70
2021/08/27 07:47:52;;;;;;;10.35;3.97;;;;;;;;;;6237353;28;20544;-70
2021/08/27 07:50:54;;;;;;;7.43;2.97;;;;;;;;;;6241787;28;20108;-70
2021/08/27 07:53:56;;;;;;;9.02;3.38;;;;;;;;;;6255383;28;20122;-71
2021/08/27 07:56:59;;;;;;;7.75;3.30;;;;;;;;;;6246154;28;20051;-71
2021/08/27 08:00:01;;;;;;;12.02;3.50;;;;;;;;;;6260025;28;20558;-71
2021/08/27 08:03:02;;;;;;;9.55;3.53;;;;;;;;;;6241191;28;20500;-70
2021/08/27 08:06:04;;;;;;;8.75;3.28;;;;;;;;;;6244558;28;20145;-70
2021/08/27 08:09:06;;;;;;;7.50;3.70;;;;;;;;;;6254516;28;20054;-70
2021/08/27 08:12:09;;;;;;;6.95;3.25;;;;;;;;;;6241372;28;20049;-70
2021/08/27 08:15:11;;;;;;;6.28;2.88;;;;;;;;;;6248250;28;20038;-72
2021/08/27 08:18:13;;;;;;;9.10;3.15;;;;;;;;;;6248620;28;20115;-70
2021/08/27 08:21:15;;;;;;;8.32;3.42;;;;;;;;;;6243138;28;20041;-70
2021/08/27 08:24:16;;;;;;;7.07;2.70;;;;;;;;;;6254693;28;20128;-70
2021/08/27 08:27:19;;;;;;;5.07;2.60;;;;;;;;;;6248172;28;20126;-71
2021/08/27 08:30:21;;;;;;;6.40;3.00;;;;;;;;;;6245494;28;20144;-71
2021/08/27 08:33:23;;;;;;;7.05;3.00;;;;;;;;;;6246296;28;20133;-71
2021/08/27 08:36:25;;;;;;;6.70;2.80;;;;;;;;;;6247081;28;20134;-70
2021/08/27 08:39:26;;;;;;;7.10;2.90;;;;;;;;;;6255116;28;20116;-71
2021/08/27 08:42:29;;;;;;;5.78;2.80;;;;;;;;;;6247430;28;20142;-71
2021/08/27 08:45:31;;;;;;;7.43;2.97;;;;;;;;;;6246561;28;20106;-71
2021/08/27 08:48:34;;;;;;;7.45;3.05;;;;;;;;;;6251292;28;20053;-70
2021/08/27 08:51:36;;;;;;;6.73;2.30;;;;;;;;;;6249334;28;20438;-70
2021/08/27 08:54:37;;;;;;;10.93;3.13;;;;;;;;;;6259074;28;20049;-70
2021/08/27 08:57:41;;;;;;;7.97;2.83;;;;;;;;;;6252076;28;20175;-71
2021/08/27 09:00:42;;;;;;;5.68;2.13;;;;;;;;;;6241571;28;20052;-70
2021/08/27 09:03:44;;;;;;;7.05;2.03;;;;;;;;;;6251574;28;20049;-70
2021/08/27 09:06:46;;;;;;;5.20;2.08;;;;;;;;;;6250115;28;20044;-70
2021/08/27 09:09:48;;;;;;;8.48;2.17;;;;;;;;;;6260257;28;20497;-70
2021/08/27 09:12:52;;;;;;;4.90;1.80;;;;;;;;;;6248834;28;20071;-70
2021/08/27 09:16:04;;;;;;;7.22;2.00;;;;;;;;;;6247103;28;20566;-71
2021/08/27 09:19:05;;;;;;;5.93;1.83;;;;;;;;;;6259467;28;20055;-70
2021/08/27 09:22:07;;;;;;;11.70;2.03;;;;;;;;;;6254284;28;20104;-71
2021/08/27 09:25:10;;;;;;;8.85;2.22;;;;;;;;;;6259542;28;20182;-71
2021/08/27 09:28:15;;;;;;;5.60;1.63;;;;;;;;;;6255199;28;20060;-71
2021/08/27 09:31:16;;;;;;;7.75;1.70;;;;;;;;;;6245579;28;20079;-71
2021/08/27 09:34:19;;;;;;;4.63;1.55;;;;;;;;;;6256497;28;20049;-70
2021/08/27 09:37:20;;;;;;;6.15;1.73;;;;;;;;;;6249734;28;20045;-70
2021/08/27 09:40:27;;;;;;;5.80;1.85;;;;;;;;;;6252484;28;20422;-70
2021/08/27 09:43:30;;;;;;;5.75;1.73;;;;;;;;;;6258143;28;20166;-70
2021/08/27 09:46:33;;;;;;;5.07;1.77;;;;;;;;;;6247299;28;20061;-70
2021/08/27 09:49:36;;;;;;;7.50;1.70;;;;;;;;;;6256351;28;20048;-70
2021/08/27 09:52:38;;;;;;;6.28;2.40;;;;;;;;;;6250148;28;20041;-70
2021/08/27 09:55:53;;;;;;;5.45;1.58;;;;;;;;;;6248580;28;20083;-70
2021/08/27 09:58:56;;;;;;;6.63;1.45;;;;;;;;;;6260920;28;20253;-70
2021/08/27 10:01:58;;;;;;;6.85;2.13;;;;;;;;;;6245731;28;20059;-70
2021/08/27 10:05:02;;;;;;;6.75;2.13;;;;;;;;;;6256847;28;20056;-70
2021/08/27 10:08:14;;;;;;;5.68;1.88;;;;;;;;;;6248518;28;20057;-70
2021/08/27 10:11:18;;;;;;;5.10;1.75;;;;;;;;;;6248125;28;20512;-71
2021/08/27 10:14:21;;;;;;;4.68;1.92;;;;;;;;;;6254966;28;20053;-71
2021/08/27 10:17:23;;;;;;;6.03;1.55;;;;;;;;;;6244574;28;20615;-70
2021/08/27 10:20:25;;;;;;;6.43;1.50;;;;;;;;;;6251413;28;20041;-71
2021/08/27 10:23:26;;;;;;;6.72;1.52;;;;;;;;;;6253751;28;20569;-71
2021/08/27 10:26:29;;;;;;;4.35;1.33;;;;;;;;;;6250618;28;20040;-73
2021/08/27 10:29:32;;;;;;;4.78;1.75;;;;;;;;;;6253723;28;20053;-73
2021/08/27 10:32:50;;;;;;;4.78;1.13;;;;;;;;;;6235791;28;20101;-73
2021/08/27 10:35:53;;;;;;;5.43;1.45;;;;;;;;;;6237959;28;20063;-72
2021/08/27 10:38:56;;;;;;;4.57;1.15;;;;;;;;;;6253056;28;20053;-72
2021/08/27 10:41:58;;;;;;;6.30;1.53;;;;;;;;;;6245308;28;20685;-71
2021/08/27 10:45:02;;;;;;;9.75;1.40;;;;;;;;;;6257871;28;20141;-71
2021/08/27 10:48:11;;;;;;;7.10;1.45;;;;;;;;;;6237923;28;20149;-71
2021/08/27 10:51:30;;;;;;;4.80;1.40;;;;;;;;;;6246150;28;20132;-71
2021/08/27 10:55:07;;;;;;;12.55;1.65;;;;;;;;;;6258288;28;20167;-70
2021/08/27 10:58:13;;;;;;;4.10;1.30;;;;;;;;;;6237403;28;21862;-74
2021/08/27 11:01:30;;;;;;;3.75;1.33;;;;;;;;;;6238521;28;20547;-75
2021/08/27 11:04:41;;;;;;;4.68;1.30;;;;;;;;;;6250259;28;20041;-74
2021/08/27 11:07:43;;;;;;;11.38;1.67;;;;;;;;;;6240885;28;20755;-76
2021/08/27 11:10:46;;;;;;;5.47;1.52;;;;;;;;;;6244823;28;20544;-77
2021/08/27 11:13:47;;;;;;;8.65;1.50;;;;;;;;;;6250634;28;20432;-74
2021/08/27 11:16:57;;;;;;;2.50;1.75;;;;;;;;;;6244810;28;20050;-75
2021/08/27 11:20:00;;;;;;;3.90;1.73;;;;;;;;;;6251489;28;20076;-74
2021/08/27 11:23:02;;;;;;;2.67;1.50;;;;;;;;;;6250324;28;20045;-74
2021/08/27 11:26:05;;;;;;;5.25;1.40;;;;;;;;;;6255982;28;20175;-74
2021/08/27 11:29:29;;;;;;;9.18;2.13;;;;;;;;;;6260611;28;20052;-74
2021/08/27 11:32:34;;;;;;;3.55;1.52;;;;;;;;;;6249244;28;20638;-74
2021/08/27 11:35:45;;;;;;;3.70;1.45;;;;;;;;;;6251025;28;20203;-74
2021/08/27 11:38:58;;;;;;;4.05;1.10;;;;;;;;;;6255405;28;20045;-72
2021/08/27 11:41:59;;;;;;;5.05;1.10;;;;;;;;;;6249223;28;20214;-73
2021/08/27 11:45:07;;;;;;;3.50;1.20;;;;;;;;;;6262843;28;20065;-73
2021/08/27 11:48:11;;;;;;;2.70;1.30;;;;;;;;;;6248290;28;20053;-75
2021/08/27 11:51:17;;;;;;;5.60;1.20;;;;;;;;;;6243260;28;20126;-76
2021/08/27 11:54:20;;;;;;;1.60;0.90;;;;;;;;;;6261916;28;20048;-75
2021/08/27 11:57:21;;;;;;;5.70;1.55;;;;;;;;;;6258185;28;20171;-76
2021/08/27 12:00:24;;;;;;;5.60;1.30;;;;;;;;;;6259517;28;20207;-76
2021/08/27 12:03:30;;;;;;;4.60;1.50;;;;;;;;;;6256121;28;20053;-76
2021/08/27 12:06:32;;;;;;;6.68;1.75;;;;;;;;;;6259588;28;20803;-73
2021/08/27 12:09:34;;;;;;;5.30;1.80;;;;;;;;;;6267734;28;20120;-75
2021/08/27 12:12:38;;;;;;;3.03;1.48;;;;;;;;;;6253551;28;20466;-73
2021/08/27 12:15:42;;;;;;;3.63;1.77;;;;;;;;;;6246777;28;20041;-73
2021/08/27 12:18:45;;;;;;;5.57;1.83;;;;;;;;;;6257540;28;20053;-73
2021/08/27 12:21:47;;;;;;;7.65;1.38;;;;;;;;;;6253729;28;20672;-76
2021/08/27 12:24:50;;;;;;;2.33;1.30;;;;;;;;;;6267649;28;20757;-73
2021/08/27 12:27:53;;;;;;;3.83;1.42;;;;;;;;;;6253252;28;20063;-74
2021/08/27 12:30:56;;;;;;;4.65;1.40;;;;;;;;;;6262470;28;20270;-74
2021/08/27 12:33:59;;;;;;;;;;;;;;;;;;6258176;28;20049;-73
2021/08/27 12:37:00;;;;;;;4.65;1.90;;;;;;;;;;6246404;28;19921;-73
2021/08/27 12:40:06;;;;;;;8.85;2.13;;;;;;;;;;6262667;28;20090;-73
2021/08/27 12:43:10;;;;;;;3.90;1.60;;;;;;;;;;6256650;28;20205;-73
2021/08/27 12:46:25;;;;;;;5.40;1.70;;;;;;;;;;6248489;28;20047;-74
2021/08/27 12:49:28;;;;;;;6.32;2.10;;;;;;;;;;6259403;28;20045;-73
2021/08/27 12:52:30;;;;;;;5.15;1.67;;;;;;;;;;6253552;28;20190;-73
2021/08/27 12:55:33;;;;;;;5.03;2.00;;;;;;;;;;6246988;28;20132;-73
2021/08/27 12:58:35;;;;;;;3.60;1.90;;;;;;;;;;6262723;28;20041;-74
2021/08/27 13:01:36;;;;;;;3.38;1.67;;;;;;;;;;6242031;28;20053;-73
2021/08/27 13:04:44;;;;;;;7.15;1.63;;;;;;;;;;6255222;28;20421;-73
2021/08/27 13:07:45;;;;;;;4.10;2.05;;;;;;;;;;6245222;28;20102;-72
2021/08/27 13:11:04;;;;;;;11.10;1.60;;;;;;;;;;6254608;28;20239;-73
2021/08/27 13:14:16;;;;;;;4.35;2.05;;;;;;;;;;6259873;28;20080;-73
2021/08/27 13:17:18;;;;;;;3.92;1.80;;;;;;;;;;6239843;28;20041;-73
2021/08/27 13:20:25;;;;;;;8.25;1.63;;;;;;;;;;6246255;28;20410;-73
2021/08/27 13:23:27;;;;;;;3.97;1.70;;;;;;;;;;6251505;28;20067;-73
2021/08/27 13:26:28;;;;;;;6.60;1.85;;;;;;;;;;6244201;28;20060;-73
2021/08/27 13:29:30;;;;;;;4.78;1.70;;;;;;;;;;6258332;28;21066;-70
2021/08/27 13:32:40;;;;;;;6.00;1.52;;;;;;;;;;6264110;28;20457;-71
2021/08/27 13:35:43;;;;;;;3.78;1.38;;;;;;;;;;6267936;28;20106;-70
2021/08/27 13:38:44;;;;;;;4.32;1.70;;;;;;;;;;6265542;28;20098;-80
2021/08/27 13:41:46;;;;;;;6.00;1.45;;;;;;;;;;6265316;28;20436;-71
2021/08/27 13:44:48;;;;;;;3.55;1.58;;;;;;;;;;6272112;28;20084;-74
2021/08/27 13:47:49;;;;;;;4.53;1.70;;;;;;;;;;6257137;28;20179;-70
2021/08/27 13:50:52;;;;;;;2.95;1.25;;;;;;;;;;6265369;28;20053;-76
2021/08/27 13:53:54;;;;;;;4.85;1.30;;;;;;;;;;6265776;28;20053;-75
2021/08/27 13:56:55;;;;;;;2.88;1.27;;;;;;;;;;6267343;28;20147;-77
2021/08/27 13:59:57;;;;;;;6.45;1.45;;;;;;;;;;6269860;28;20126;-83
2021/08/27 14:02:58;;;;;;;4.55;1.55;;;;;;;;;;6258263;28;20049;-73
2021/08/27 14:06:01;;;;;;;4.82;1.65;;;;;;;;;;6262710;28;20087;-79
2021/08/27 14:09:03;;;;;;;3.08;1.38;;;;;;;;;;6271915;28;20079;-87
2021/08/27 14:12:06;;;;;;;3.45;1.40;;;;;;;;;;6267734;28;20048;-75
2021/08/27 14:15:10;;;;;;;4.72;1.42;;;;;;;;;;6274124;28;20095;-86
2021/08/27 14:18:12;;;;;;;5.65;1.38;;;;;;;;;;6269714;28;20133;-70
2021/08/27 14:21:15;;;;;;;4.40;1.50;;;;;;;;;;6265312;28;20103;-75
2021/08/27 14:24:17;;;;;;;2.20;1.00;;;;;;;;;;6275576;28;20041;-69
2021/08/27 14:27:18;;;;;;;5.93;1.47;;;;;;;;;;6269927;28;20080;-71
2021/08/27 14:30:20;;;;;;;2.85;1.33;;;;;;;;;;6263042;28;20045;-80
2021/08/27 14:33:25;;;;;;;8.07;1.38;;;;;;;;;;6267085;28;20041;-86
2021/08/27 14:36:30;;;;;;;6.22;1.50;;;;;;;;;;6262862;28;20041;-72
2021/08/27 14:39:32;;;;;;;3.92;1.23;;;;;;;;;;6271821;28;20107;-72
2021/08/27 14:42:34;;;;;;;3.80;1.10;;;;;;;;;;6262738;28;20103;-69
2021/08/27 14:45:35;;;;;;;2.25;1.30;;;;;;;;;;6263113;28;20620;-75
2021/08/27 14:48:38;;;;;;;5.43;1.50;;;;;;;;;;6260843;28;20118;-69
2021/08/27 14:51:41;;;;;;;5.38;1.42;;;;;;;;;;6255798;28;20037;-69
2021/08/27 14:54:43;;;;;;;3.42;1.40;;;;;;;;;;6264112;28;20091;-69
2021/08/27 14:57:46;;;;;;;2.47;1.05;;;;;;;;;;6257229;28;20174;-69
2021/08/27 15:00:48;;;;;;;1.77;1.10;;;;;;;;;;6257599;28;20041;-70
2021/08/27 15:03:51;;;;;;;3.25;1.20;;;;;;;;;;6268738;28;21099;-68
2021/08/27 15:06:54;;;;;;;2.60;0.95;;;;;;;;;;6264320;28;20041;-73
2021/08/27 15:09:56;;;;;;;2.92;1.50;;;;;;;;;;6266407;28;20520;-74
2021/08/27 15:12:57;;;;;;;2.00;1.05;;;;;;;;;;6261047;28;20151;-70
2021/08/27 15:15:59;;;;;;;4.20;1.20;;;;;;;;;;6258102;28;20114;-72
2021/08/27 15:19:01;;;;;;;2.50;1.10;;;;;;;;;;6258599;28;20128;-81
2021/08/27 15:22:05;;;;;;;4.72;1.40;;;;;;;;;;6261449;28;20080;-70
2021/08/27 15:25:07;;;;;;;8.00;1.75;;;;;;;;;;6266751;28;20140;-84
2021/08/27 15:28:09;;;;;;;;;;;;;;;;;;6260469;28;20077;-68
2021/08/27 15:31:10;;;;;;;3.33;1.30;;;;;;;;;;6257861;28;20391;-74
2021/08/27 15:34:12;;;;;;;2.97;1.00;;;;;;;;;;6258984;28;20127;-76
2021/08/27 15:37:16;;;;;;;2.92;1.70;;;;;;;;;;6255782;28;20138;-72
2021/08/27 15:40:17;;;;;;;3.33;1.27;;;;;;;;;;6257911;28;20045;-87
2021/08/27 15:43:19;;;;;;;3.72;1.60;;;;;;;;;;6259140;28;20121;-69
2021/08/27 15:46:20;;;;;;;3.20;1.23;;;;;;;;;;6256601;28;20083;-69
2021/08/27 15:49:23;;;;;;;2.50;1.20;;;;;;;;;;6256915;28;20053;-69
2021/08/27 15:52:27;;;;;;;2.58;1.13;;;;;;;;;;6258557;28;20068;-79
2021/08/27 15:55:30;;;;;;;4.18;1.50;;;;;;;;;;6257167;28;20049;-70
2021/08/27 15:58:31;;;;;;;;;;;;;;;;;;6264827;28;20396;-70
2021/08/27 16:01:33;;;;;;;3.67;1.48;;;;;;;;;;6253057;28;19972;-81
2021/08/27 16:04:35;;;;;;;2.40;1.30;;;;;;;;;;6267321;28;20109;-70
2021/08/27 16:07:38;;;;;;;3.65;1.45;;;;;;;;;;6262199;28;20503;-70
2021/08/27 16:10:41;;;;;;;3.08;1.17;;;;;;;;;;6261145;28;20492;-72
2021/08/27 16:13:43;;;;;;;1.80;1.05;;;;;;;;;;6269445;28;20052;-80
2021/08/27 16:16:46;;;;;;;2.13;1.60;;;;;;;;;;6263839;28;20493;-69
2021/08/27 16:19:48;;;;;;;5.00;1.40;;;;;;;;;;6271119;28;20460;-72
2021/08/27 16:22:51;;;;;;;2.58;1.40;;;;;;;;;;6262467;28;20179;-70
2021/08/27 16:25:53;;;;;;;3.65;1.58;;;;;;;;;;6262450;28;20042;-69
2021/08/27 16:28:54;;;;;;;1.77;1.40;;;;;;;;;;6270312;28;20040;-69
2021/08/27 16:31:56;;;;;;;2.10;1.60;;;;;;;;;;6260481;28;20045;-76
2021/08/27 16:34:57;;;;;;;3.75;1.20;;;;;;;;;;6265483;28;20553;-85
2021/08/27 16:38:00;;;;;;;1.95;1.48;;;;;;;;;;6263254;28;20060;-78
2021/08/27 16:41:03;;;;;;;3.78;1.50;;;;;;;;;;6263961;28;20103;-76
2021/08/27 16:44:05;;;;;;;2.67;1.42;;;;;;;;;;6260875;28;20118;-68
2021/08/27 16:47:07;;;;;;;1.70;1.20;;;;;;;;;;6258612;28;20094;-70
2021/08/27 16:50:09;;;;;;;2.92;1.20;;;;;;;;;;6265270;28;20045;-82
2021/08/27 16:53:14;;;;;;;4.03;1.55;;;;;;;;;;6266470;28;20069;-70
2021/08/27 16:56:16;;;;;;;1.85;1.30;;;;;;;;;;6261472;28;20037;-69
2021/08/27 16:59:17;;;;;;;5.07;2.55;;;;;;;;;;6254097;28;20219;-70
2021/08/27 17:02:19;;;;;;;3.63;2.35;;;;;;;;;;6269713;28;20109;-70
2021/08/27 17:05:20;;;;;;;5.80;2.00;;;;;;;;;;6261171;28;20219;-84
2021/08/27 17:08:25;;;;;;;2.33;1.50;;;;;;;;;;6264172;28;20051;-69
2021/08/27 17:11:28;;;;;;;3.70;1.55;;;;;;;;;;6263988;28;20181;-69
2021/08/27 17:14:29;;;;;;;3.30;1.90;;;;;;;;;;6262889;28;20606;-75
2021/08/27 17:17:31;;;;;;;3.38;1.80;;;;;;;;;;6259875;28;20549;-69
2021/08/27 17:20:32;;;;;;;2.88;1.50;;;;;;;;;;6265324;28;20041;-82
2021/08/27 17:23:36;;;;;;;3.35;1.90;;;;;;;;;;6266033;28;20049;-75
2021/08/27 17:26:37;;;;;;;4.15;1.60;;;;;;;;;;6265961;28;20118;-69
2021/08/27 17:29:39;;;;;;;2.58;1.63;;;;;;;;;;6272766;28;20151;-68
2021/08/27 17:32:42;;;;;;;3.65;1.90;;;;;;;;;;6258137;28;20116;-74
2021/08/27 17:35:43;;;;;;;6.20;1.73;;;;;;;;;;6259052;28;20049;-72
2021/08/27 17:38:46;;;;;;;3.17;1.50;;;;;;;;;;6264759;28;20087;-68
2021/08/27 17:41:48;;;;;;;6.95;1.70;;;;;;;;;;6259064;28;20049;-69
2021/08/27 17:44:49;;;;;;;3.75;1.88;;;;;;;;;;6260315;28;20191;-81
2021/08/27 17:47:51;;;;;;;3.88;1.70;;;;;;;;;;6254706;28;20051;-68
2021/08/27 17:50:53;;;;;;;2.83;1.48;;;;;;;;;;6256709;28;20804;-70
2021/08/27 17:53:56;;;;;;;3.38;1.38;;;;;;;;;;6269081;28;20045;-70
2021/08/27 17:56:58;;;;;;;3.83;1.33;;;;;;;;;;6259259;28;20174;-68
2021/08/27 17:59:59;;;;;;;3.28;1.80;;;;;;;;;;6264612;28;20123;-69
2021/08/27 18:03:01;;;;;;;4.13;1.70;;;;;;;;;;6251697;28;20157;-69
2021/08/27 18:06:02;;;;;;;3.33;1.63;;;;;;;;;;6256170;28;20055;-72
2021/08/27 18:09:06;;;;;;;4.07;1.73;;;;;;;;;;6261047;28;20461;-68
2021/08/27 18:12:08;;;;;;;6.07;1.83;;;;;;;;;;6264008;28;20206;-69
2021/08/27 18:15:12;;;;;;;4.43;1.48;;;;;;;;;;6262112;28;20045;-84
2021/08/27 18:18:13;;;;;;;;;;;;;;;;;;6260177;28;20155;-68
2021/08/27 18:21:16;;;;;;;5.82;1.80;;;;;;;;;;6256130;28;19925;-68